Aviation Digital Data Service (ADDS)

Output produced by METARs form (2357 UTC 23 October 2019)
found at http://www.aviationweather.gov/metar/data/
 
RJTT 232330Z 03013KT 9999 FEW020 BKN060 BKN/// 19/15 Q1023 NOSIG RMK 1CU020 6SC060 A3023
RJTT 232300Z 02011KT 9999 FEW020 BKN060 19/15 Q1024 NOSIG RMK 1CU020 7SC060 A3024
TAF RJTT 232305Z 2400/2506 04016KT 9999 FEW015 BKN040 
     BECMG 2421/2500 08018KT 
     TEMPO 2421/2500 FEW005 BKN008 
     BECMG 2500/2503 16016KT 
     TEMPO 2500/2506 3000 TSRA BR FEW005 BKN008 FEW020CB
       
RJAA 232330Z 04008KT 9999 FEW020 BKN190 BKN/// 20/15 Q1024 NOSIG RMK 1CU020 5AC190 A3025
RJAA 232300Z 03008KT 9999 FEW020 BKN190 19/15 Q1024 NOSIG RMK 1CU020 7AC190 A3024
TAF RJAA 232305Z 2400/2506 04014KT 9999 FEW020 BKN040 
     BECMG 2418/2421 08016KT 
     BECMG 2421/2500 4000 -SHRA BR FEW005 BKN008 
     BECMG 2500/2503 14016KT 
     TEMPO 2503/2506 14020G30KT 2000 TSRA BR FEW003 BKN005 FEW020CB
       
RJGG 232330Z 10014KT 9999 FEW010 SCT070 BKN130 21/15 Q1019 NOSIG
RJGG 232300Z 08010KT 9999 FEW010 BKN070 BKN090 21/15 Q1019 BECMG 10010KT
TAF RJGG 232305Z 2400/2506 10010KT 9999 FEW020 BKN050 
     BECMG 2400/2402 11020KT 
     TEMPO 2409/2418 11028G38KT 
     TEMPO 2418/2421 11028G38KT 4000 SHRA BR 
     TEMPO 2421/2500 2000 SHRA BR FEW005 BKN008 
     BECMG 2421/2500 36012KT
       
RJBB 232330Z 06013KT 9999 FEW006 SCT080 BKN120 20/18 Q1017 NOSIG
RJBB 232300Z 04014KT 9999 FEW006 SCT080 BKN120 20/18 Q1017 NOSIG
TAF RJBB 232306Z 2400/2506 06013KT 9999 -RA FEW015 SCT030 BKN045 
     TEMPO 2412/2418 3000 SHRA BR FEW005 BKN008 BKN015 
     BECMG 2500/2503 29010KT
       
RJOO 232300Z 06006KT 010V100 9999 VCSH FEW006 BKN070 BKN130 20/18 Q1018 RMK 1ST006 5AC070 6AC130 A3006
TAF RJOO 232307Z 2400/2506 07013KT 9000 -RA FEW010 SCT025 BKN040 
     TEMPO 2406/2415 07020G30KT 
     TEMPO 2415/2421 07020G30KT 3000 SHRA BR 
     BECMG 2500/2503 32010KT
       
RJFF 232330Z 31005KT 250V360 4500 -SHRA BR FEW008 SCT020 BKN040 18/17 Q1014 TEMPO 3000 SHRA BR FEW005 BKN008 BKN015
RJFF 232300Z 36005KT 330V040 3000 SHRA BR FEW008 SCT020 BKN040 18/17 Q1014 TEMPO FEW005 BKN008 BKN015 RMK 1ST008 3CU020 6CU040 A2995
TAF RJFF 232309Z 2400/2506 35007KT 7000 -SHRA FEW005 SCT010 BKN015 
     TEMPO 2400/2406 3000 SHRA BR FEW005 BKN008 BKN015 
     TEMPO 2406/2409 4000 SHRA BR FEW005 BKN008 BKN015
       
ROAH 232330Z 29014KT 9999 FEW030 SCT/// 25/18 Q1013
ROAH 232300Z 29012KT 9999 FEW030 BKN/// 25/19 Q1012 RMK 1CU030 A2990
TAF ROAH 232305Z 2400/2506 34017KT 9999 SCT030
       
RJCC 232330Z 34009KT 9999 FEW003 BKN/// 10/08 Q1028 RMK 1ST003 A3036
RJCC 232300Z 33008KT 5000 BR FEW002 BKN/// 09/08 Q1028 RMK 2ST002 A3036 9999S-NW
TAF RJCC 232305Z 2400/2506 36008KT 9999 FEW015 
     BECMG 2405/2407 16006KT
       
RJEC 232313Z VRB02KT 7000 FEW001 SCT003 BKN006 05/05 Q1029 RMK 1ST001 4ST003 6ST006 A3039
RJEC 232300Z VRB01KT 5000 BR FEW001 SCT002 BKN003 05/05 Q1029
TAF RJEC 232309Z 2400/2506 34005KT 9999 FEW006 BKN015 
     TEMPO 2400/2402 FEW003 BKN006 
     BECMG 2409/2411 17005KT 
     BECMG 2503/2506 35005KT
       
RJCK 232300Z 01009KT 9999 FEW030 10/03 Q1028
TAF RJCK 232310Z 2400/2506 01010KT 9999 FEW030 
     TEMPO 2415/2421 FEW005 BKN008 
     BECMG 2503/2506 11007KT
       
RJSA 232300Z 06009KT 9999 FEW015 BKN/// 13/10 Q1026
TAF RJSA 232305Z 2400/2506 04010KT 9999 FEW020
       
RJSK 232300Z 14003KT 110V180 9999 R28/P2000N PRFG FEW000 SCT160 BKN/// 12/12 Q1024
TAF RJSK 232305Z 2400/2506 12010KT 9999 FEW030 
     TEMPO 2421/2503 12020G30KT
       
RJSN 232300Z 06004KT 030V120 9999 FEW030 SCT070 BKN/// 17/15 Q1022
TAF RJSN 232305Z 2400/2506 12012KT 9999 FEW020 
     BECMG 2421/2500 04012KT 
     TEMPO 2500/2506 4000 RA BR FEW005 BKN008
       
RJSF 232300Z VRB02KT 9999 FEW005 BKN030 14/12 Q1026
TAF RJSF 232305Z 2400/2506 14004KT 9999 FEW010 BKN030 
     BECMG 2401/2403 36008KT 
     TEMPO 2500/2506 4000 SHRA BR FEW002 BKN005 BKN010
       
RJSS 232300Z VRB02KT 9999 -SHRA FEW005 SCT012 BKN020 16/14 Q1026
TAF RJSS 232305Z 2400/2506 02004KT 9999 FEW020 BKN030 
     BECMG 2401/2403 10012KT 
     TEMPO 2500/2506 3000 SHRA BR FEW005 BKN008 BKN015
       
RJOK 232300Z 35005KT 9999 -SHRA FEW003 BKN035 BKN050 18/16 Q1016
TAF RJOK 232309Z 2400/2506 35006KT 7000 -SHRA FEW008 SCT015 BKN030 
     BECMG 2400/2402 12010KT 
     TEMPO 2400/2409 3000 SHRA BR 
     BECMG 2405/2407 12020KT 
     TEMPO 2409/2415 2000 +TSRA BR FEW002 BKN008 BKN015 FEW020CB 
     BECMG 2415/2418 35013KT
       
RJOM 232328Z 06005KT 030V100 6000 -RA FEW004 SCT025 BKN045 19/18 Q1015 RMK 1ST004 3CU025 6SC045 A2997
RJOM 232313Z 05006KT 010V090 4500 RA BR FEW012 SCT030 BKN045 18/18 Q1015 RMK 1CU012 3CU030 6SC045 A2998
RJOM 232300Z 04004KT 010V080 3000 RA BR FEW015 SCT030 BKN050 19/18 Q1015
TAF RJOM 232309Z 2400/2506 02012KT 7000 -SHRA FEW008 SCT015 BKN030 
     TEMPO 2400/2403 3000 SHRA BR 
     TEMPO 2403/2409 2000 +SHRA BR FEW004 BKN008 BKN015 
     TEMPO 2409/2412 4000 SHRA BR
       
RJFO 232300Z 05016KT 8000 -SHRA FEW006 SCT015 BKN035 20/19 Q1014
TAF RJFO 232309Z 2400/2506 03017KT 6000 -SHRA FEW005 SCT010 BKN015 
     TEMPO 2400/2402 3000 SHRA BR FEW004 BKN007 BKN010 
     TEMPO 2402/2405 1500 +SHRA BR FEW004 BKN007 BKN010 
     TEMPO 2405/2409 3000 SHRA BR FEW004 BKN007 BKN010 
     BECMG 2409/2411 32015KT 
     TEMPO 2500/2506 32015G25KT
       
RJFU 232300Z 01008KT 9999 -SHRA FEW007 SCT025 BKN040 19/17 Q1012
TAF RJFU 232305Z 2400/2506 02012KT 9999 -SHRA FEW010 SCT030 BKN040 
     TEMPO 2403/2409 3000 SHRA BR
       
RJFT 232300Z 01011KT 9999 FEW025 SCT110 BKN150 19/17 Q1012
TAF RJFT 232309Z 2400/2506 03006KT 7000 -SHRA FEW005 SCT020 BKN030 
     TEMPO 2400/2406 3000 SHRA BR 
     BECMG 2412/2415 21004KT 
     TEMPO 2412/2421 1500 -SHRA BR FEW002 BKN004 BKN010
       
RJFK 232300Z 11009KT 080V150 9999 VCFG FEW010 BKN040 19/17 Q1011 RMK 1CU010 6CU040 A2986 FG N
TAF RJFK 232312Z 2400/2506 14008KT 9999 FEW020 SCT040 
     BECMG 2407/2409 33011KT
       
RJFM 232319Z 34007KT 300V010 6000 -SHRA FEW008 BKN012 BKN020 19/18 Q1011 RMK 1ST008 5CU012 6CU020 A2988
RJFM 232300Z 35007KT 310V010 4000 -SHRA BR FEW007 BKN013 FEW020CB BKN025 19/18 Q1012
TAF RJFM 232311Z 2400/2506 33008KT 7000 -SHRA FEW005 SCT010 BKN015 
     BECMG 2400/2402 12013KT 
     TEMPO 2400/2405 3000 SHRA BR 
     BECMG 2404/2406 23007KT